sensor_id;sensor_type;location;lat;lon;timestamp;temperature;humidity
65876;HTU21D;52657;51.128;5.938;2023-02-18T00:00:18;14.48;71.32
65876;HTU21D;52657;51.128;5.938;2023-02-18T00:02:45;14.47;71.32
65876;HTU21D;52657;51.128;5.938;2023-02-18T00:05:12;14.43;71.45
65876;HTU21D;52657;51.128;5.938;2023-02-18T00:07:39;14.41;71.55
65876;HTU21D;52657;51.128;5.938;2023-02-18T00:10:09;14.40;71.54
65876;HTU21D;52657;51.128;5.938;2023-02-18T00:12:36;14.41;71.45
65876;HTU21D;52657;51.128;5.938;2023-02-18T00:15:01;14.39;71.57
65876;HTU21D;52657;51.128;5.938;2023-02-18T00:17:28;14.39;71.54
65876;HTU21D;52657;51.128;5.938;2023-02-18T00:19:54;14.40;71.53
65876;HTU21D;52657;51.128;5.938;2023-02-18T00:22:20;14.37;71.52
65876;HTU21D;52657;51.128;5.938;2023-02-18T00:24:45;14.33;71.75
65876;HTU21D;52657;51.128;5.938;2023-02-18T00:27:11;14.30;71.76
65876;HTU21D;52657;51.128;5.938;2023-02-18T00:29:37;14.29;71.84
65876;HTU21D;52657;51.128;5.938;2023-02-18T00:32:04;14.28;71.90
65876;HTU21D;52657;51.128;5.938;2023-02-18T00:34:30;14.30;71.90
65876;HTU21D;52657;51.128;5.938;2023-02-18T00:36:56;14.30;71.93
65876;HTU21D;52657;51.128;5.938;2023-02-18T00:39:21;14.26;72.09
65876;HTU21D;52657;51.128;5.938;2023-02-18T00:41:50;14.23;72.25
65876;HTU21D;52657;51.128;5.938;2023-02-18T00:44:16;14.21;72.47
65876;HTU21D;52657;51.128;5.938;2023-02-18T00:46:42;14.22;72.56
65876;HTU21D;52657;51.128;5.938;2023-02-18T00:49:08;14.22;72.58
65876;HTU21D;52657;51.128;5.938;2023-02-18T00:51:35;14.24;72.68
65876;HTU21D;52657;51.128;5.938;2023-02-18T00:54:01;14.27;72.64
65876;HTU21D;52657;51.128;5.938;2023-02-18T00:56:27;14.29;72.58
65876;HTU21D;52657;51.128;5.938;2023-02-18T00:58:53;14.20;73.03
65876;HTU21D;52657;51.128;5.938;2023-02-18T01:01:19;14.17;73.30
65876;HTU21D;52657;51.128;5.938;2023-02-18T01:03:45;14.14;73.55
65876;HTU21D;52657;51.128;5.938;2023-02-18T01:06:13;14.06;74.10
65876;HTU21D;52657;51.128;5.938;2023-02-18T01:08:40;14.03;74.36
65876;HTU21D;52657;51.128;5.938;2023-02-18T01:11:08;14.06;74.46
65876;HTU21D;52657;51.128;5.938;2023-02-18T01:13:35;14.01;74.73
65876;HTU21D;52657;51.128;5.938;2023-02-18T01:16:01;14.03;74.99
65876;HTU21D;52657;51.128;5.938;2023-02-18T01:18:29;14.00;75.11
65876;HTU21D;52657;51.128;5.938;2023-02-18T01:20:55;13.97;75.23
65876;HTU21D;52657;51.128;5.938;2023-02-18T01:23:24;13.96;75.42
65876;HTU21D;52657;51.128;5.938;2023-02-18T01:25:50;13.88;75.76
65876;HTU21D;52657;51.128;5.938;2023-02-18T01:28:16;13.82;76.17
65876;HTU21D;52657;51.128;5.938;2023-02-18T01:30:43;13.81;76.21
65876;HTU21D;52657;51.128;5.938;2023-02-18T01:33:09;13.80;76.38
65876;HTU21D;52657;51.128;5.938;2023-02-18T01:35:39;13.85;76.38
65876;HTU21D;52657;51.128;5.938;2023-02-18T01:38:04;13.88;76.33
65876;HTU21D;52657;51.128;5.938;2023-02-18T01:40:30;13.89;76.38
65876;HTU21D;52657;51.128;5.938;2023-02-18T01:42:56;13.90;76.49
65876;HTU21D;52657;51.128;5.938;2023-02-18T01:48:14;13.90;76.47
65876;HTU21D;52657;51.128;5.938;2023-02-18T01:50:45;13.86;76.54
65876;HTU21D;52657;51.128;5.938;2023-02-18T01:53:16;13.83;76.61
65876;HTU21D;52657;51.128;5.938;2023-02-18T01:55:43;13.83;76.65
65876;HTU21D;52657;51.128;5.938;2023-02-18T01:58:11;13.82;76.75
65876;HTU21D;52657;51.128;5.938;2023-02-18T02:00:38;13.83;76.63
65876;HTU21D;52657;51.128;5.938;2023-02-18T02:03:04;13.83;76.60
65876;HTU21D;52657;51.128;5.938;2023-02-18T02:05:31;13.80;76.72
65876;HTU21D;52657;51.128;5.938;2023-02-18T02:07:59;13.77;76.79
65876;HTU21D;52657;51.128;5.938;2023-02-18T02:10:53;13.79;76.78
65876;HTU21D;52657;51.128;5.938;2023-02-18T02:16:14;13.80;76.77
65876;HTU21D;52657;51.128;5.938;2023-02-18T02:36:21;13.83;76.31
65876;HTU21D;52657;51.128;5.938;2023-02-18T02:44:33;13.82;76.28
65876;HTU21D;52657;51.128;5.938;2023-02-18T02:47:20;13.80;76.44
65876;HTU21D;52657;51.128;5.938;2023-02-18T02:51:03;13.78;76.53
65876;HTU21D;52657;51.128;5.938;2023-02-18T02:53:15;13.73;76.79
65876;HTU21D;52657;51.128;5.938;2023-02-18T02:55:45;13.68;76.99
65876;HTU21D;52657;51.128;5.938;2023-02-18T02:58:16;13.70;76.92
65876;HTU21D;52657;51.128;5.938;2023-02-18T03:03:59;13.70;76.71
65876;HTU21D;52657;51.128;5.938;2023-02-18T03:09:09;13.75;76.68
65876;HTU21D;52657;51.128;5.938;2023-02-18T03:12:16;13.68;76.79
65876;HTU21D;52657;51.128;5.938;2023-02-18T03:17:37;13.77;76.62
65876;HTU21D;52657;51.128;5.938;2023-02-18T03:20:18;13.81;76.37
65876;HTU21D;52657;51.128;5.938;2023-02-18T03:22:50;13.82;76.23
65876;HTU21D;52657;51.128;5.938;2023-02-18T03:25:18;13.78;76.28
65876;HTU21D;52657;51.128;5.938;2023-02-18T03:27:53;13.76;76.45
65876;HTU21D;52657;51.128;5.938;2023-02-18T03:30:29;13.75;76.43
65876;HTU21D;52657;51.128;5.938;2023-02-18T03:33:02;13.67;76.60
65876;HTU21D;52657;51.128;5.938;2023-02-18T03:35:28;13.66;76.83
65876;HTU21D;52657;51.128;5.938;2023-02-18T03:38:06;13.62;77.02
65876;HTU21D;52657;51.128;5.938;2023-02-18T03:40:34;13.61;77.11
65876;HTU21D;52657;51.128;5.938;2023-02-18T03:43:00;13.60;77.11
65876;HTU21D;52657;51.128;5.938;2023-02-18T03:45:26;13.60;77.17
65876;HTU21D;52657;51.128;5.938;2023-02-18T03:47:52;13.58;77.28
65876;HTU21D;52657;51.128;5.938;2023-02-18T03:50:18;13.53;77.40
65876;HTU21D;52657;51.128;5.938;2023-02-18T03:52:44;13.49;77.81
65876;HTU21D;52657;51.128;5.938;2023-02-18T03:55:11;13.50;77.72
65876;HTU21D;52657;51.128;5.938;2023-02-18T03:57:36;13.50;77.90
65876;HTU21D;52657;51.128;5.938;2023-02-18T04:00:04;13.50;77.79
65876;HTU21D;52657;51.128;5.938;2023-02-18T04:02:39;13.50;77.88
65876;HTU21D;52657;51.128;5.938;2023-02-18T04:05:05;13.52;77.79
65876;HTU21D;52657;51.128;5.938;2023-02-18T04:07:32;13.52;77.84
65876;HTU21D;52657;51.128;5.938;2023-02-18T04:09:57;13.47;77.97
65876;HTU21D;52657;51.128;5.938;2023-02-18T04:12:23;13.48;77.96
65876;HTU21D;52657;51.128;5.938;2023-02-18T04:14:49;13.51;77.95
65876;HTU21D;52657;51.128;5.938;2023-02-18T04:17:18;13.46;78.03
65876;HTU21D;52657;51.128;5.938;2023-02-18T04:19:43;13.46;77.98
65876;HTU21D;52657;51.128;5.938;2023-02-18T04:22:09;13.43;78.09
65876;HTU21D;52657;51.128;5.938;2023-02-18T04:24:35;13.46;78.06
65876;HTU21D;52657;51.128;5.938;2023-02-18T04:27:01;13.44;78.04
65876;HTU21D;52657;51.128;5.938;2023-02-18T04:29:27;13.43;78.02
65876;HTU21D;52657;51.128;5.938;2023-02-18T04:31:52;13.40;78.08
65876;HTU21D;52657;51.128;5.938;2023-02-18T04:34:19;13.43;77.97
65876;HTU21D;52657;51.128;5.938;2023-02-18T04:36:45;13.37;78.27
65876;HTU21D;52657;51.128;5.938;2023-02-18T04:39:11;13.34;78.20
65876;HTU21D;52657;51.128;5.938;2023-02-18T04:41:36;13.32;78.37
65876;HTU21D;52657;51.128;5.938;2023-02-18T04:44:02;13.29;78.47
65876;HTU21D;52657;51.128;5.938;2023-02-18T04:46:28;13.27;78.61
65876;HTU21D;52657;51.128;5.938;2023-02-18T04:48:54;13.29;78.50
65876;HTU21D;52657;51.128;5.938;2023-02-18T04:51:20;13.30;78.53
65876;HTU21D;52657;51.128;5.938;2023-02-18T04:53:46;13.32;78.36
65876;HTU21D;52657;51.128;5.938;2023-02-18T04:56:12;13.30;78.41
65876;HTU21D;52657;51.128;5.938;2023-02-18T04:58:37;13.27;78.42
65876;HTU21D;52657;51.128;5.938;2023-02-18T05:01:04;13.29;78.40
65876;HTU21D;52657;51.128;5.938;2023-02-18T05:03:30;13.27;78.34
65876;HTU21D;52657;51.128;5.938;2023-02-18T05:05:57;13.27;78.31
65876;HTU21D;52657;51.128;5.938;2023-02-18T05:08:22;13.25;78.31
65876;HTU21D;52657;51.128;5.938;2023-02-18T05:10:48;13.23;78.51
65876;HTU21D;52657;51.128;5.938;2023-02-18T05:13:14;13.26;78.46
65876;HTU21D;52657;51.128;5.938;2023-02-18T05:15:40;13.31;78.15
65876;HTU21D;52657;51.128;5.938;2023-02-18T05:18:06;13.25;78.30
65876;HTU21D;52657;51.128;5.938;2023-02-18T05:20:33;13.26;78.24
65876;HTU21D;52657;51.128;5.938;2023-02-18T05:22:59;13.23;78.25
65876;HTU21D;52657;51.128;5.938;2023-02-18T05:25:25;13.26;78.03
65876;HTU21D;52657;51.128;5.938;2023-02-18T05:27:51;13.24;77.97
65876;HTU21D;52657;51.128;5.938;2023-02-18T05:30:17;13.23;77.96
65876;HTU21D;52657;51.128;5.938;2023-02-18T05:32:43;13.24;77.77
65876;HTU21D;52657;51.128;5.938;2023-02-18T05:35:09;13.20;77.27
65876;HTU21D;52657;51.128;5.938;2023-02-18T05:37:35;13.10;77.89
65876;HTU21D;52657;51.128;5.938;2023-02-18T05:40:00;13.11;77.79
65876;HTU21D;52657;51.128;5.938;2023-02-18T05:42:26;13.12;77.73
65876;HTU21D;52657;51.128;5.938;2023-02-18T05:44:52;13.15;77.42
65876;HTU21D;52657;51.128;5.938;2023-02-18T05:47:18;13.19;77.23
65876;HTU21D;52657;51.128;5.938;2023-02-18T05:49:44;13.22;76.84
65876;HTU21D;52657;51.128;5.938;2023-02-18T05:52:10;13.25;76.42
65876;HTU21D;52657;51.128;5.938;2023-02-18T05:54:39;13.26;76.26
65876;HTU21D;52657;51.128;5.938;2023-02-18T05:57:05;13.32;75.86
65876;HTU21D;52657;51.128;5.938;2023-02-18T05:59:31;13.34;75.58
65876;HTU21D;52657;51.128;5.938;2023-02-18T06:01:57;13.39;75.31
65876;HTU21D;52657;51.128;5.938;2023-02-18T06:04:23;13.38;75.08
65876;HTU21D;52657;51.128;5.938;2023-02-18T06:06:49;13.36;74.89
65876;HTU21D;52657;51.128;5.938;2023-02-18T06:09:15;13.34;74.83
65876;HTU21D;52657;51.128;5.938;2023-02-18T06:11:41;13.35;74.61
65876;HTU21D;52657;51.128;5.938;2023-02-18T06:14:06;13.35;74.66
65876;HTU21D;52657;51.128;5.938;2023-02-18T06:16:32;13.36;74.54
65876;HTU21D;52657;51.128;5.938;2023-02-18T06:18:58;13.39;74.16
65876;HTU21D;52657;51.128;5.938;2023-02-18T06:21:25;13.40;74.19
65876;HTU21D;52657;51.128;5.938;2023-02-18T06:23:51;13.41;74.06
65876;HTU21D;52657;51.128;5.938;2023-02-18T06:26:16;13.34;74.11
65876;HTU21D;52657;51.128;5.938;2023-02-18T06:28:42;13.39;73.99
65876;HTU21D;52657;51.128;5.938;2023-02-18T06:31:08;13.36;74.22
65876;HTU21D;52657;51.128;5.938;2023-02-18T06:33:34;13.33;74.37
65876;HTU21D;52657;51.128;5.938;2023-02-18T06:36:02;13.32;74.41
65876;HTU21D;52657;51.128;5.938;2023-02-18T06:38:32;13.29;74.65
65876;HTU21D;52657;51.128;5.938;2023-02-18T06:40:57;13.31;74.66
65876;HTU21D;52657;51.128;5.938;2023-02-18T06:43:23;13.25;74.89
65876;HTU21D;52657;51.128;5.938;2023-02-18T06:45:50;13.24;75.25
65876;HTU21D;52657;51.128;5.938;2023-02-18T06:48:16;13.22;75.29
65876;HTU21D;52657;51.128;5.938;2023-02-18T06:50:43;13.23;75.29
65876;HTU21D;52657;51.128;5.938;2023-02-18T06:53:11;13.18;75.47
65876;HTU21D;52657;51.128;5.938;2023-02-18T06:55:38;13.14;75.70
65876;HTU21D;52657;51.128;5.938;2023-02-18T06:58:04;13.17;75.81
65876;HTU21D;52657;51.128;5.938;2023-02-18T07:00:30;13.16;75.79
65876;HTU21D;52657;51.128;5.938;2023-02-18T07:02:56;13.14;75.90
65876;HTU21D;52657;51.128;5.938;2023-02-18T07:05:21;13.10;75.93
65876;HTU21D;52657;51.128;5.938;2023-02-18T07:07:48;13.11;75.82
65876;HTU21D;52657;51.128;5.938;2023-02-18T07:10:17;13.03;75.92
65876;HTU21D;52657;51.128;5.938;2023-02-18T07:12:43;13.06;75.79
65876;HTU21D;52657;51.128;5.938;2023-02-18T07:15:09;13.06;75.83
65876;HTU21D;52657;51.128;5.938;2023-02-18T07:17:35;13.03;75.89
65876;HTU21D;52657;51.128;5.938;2023-02-18T07:20:01;13.12;75.47
65876;HTU21D;52657;51.128;5.938;2023-02-18T07:22:27;13.06;75.83
65876;HTU21D;52657;51.128;5.938;2023-02-18T07:24:53;13.01;75.51
65876;HTU21D;52657;51.128;5.938;2023-02-18T07:27:20;12.96;75.64
65876;HTU21D;52657;51.128;5.938;2023-02-18T07:29:46;12.96;75.50
65876;HTU21D;52657;51.128;5.938;2023-02-18T07:32:13;12.95;75.25
65876;HTU21D;52657;51.128;5.938;2023-02-18T07:34:39;12.94;75.16
65876;HTU21D;52657;51.128;5.938;2023-02-18T07:37:05;12.94;75.40
65876;HTU21D;52657;51.128;5.938;2023-02-18T07:39:34;12.96;75.27
65876;HTU21D;52657;51.128;5.938;2023-02-18T07:42:02;12.97;75.26
65876;HTU21D;52657;51.128;5.938;2023-02-18T07:44:31;12.97;75.02
65876;HTU21D;52657;51.128;5.938;2023-02-18T07:46:57;12.97;74.88
65876;HTU21D;52657;51.128;5.938;2023-02-18T07:49:23;13.02;74.60
65876;HTU21D;52657;51.128;5.938;2023-02-18T07:51:49;13.02;74.59
65876;HTU21D;52657;51.128;5.938;2023-02-18T07:54:18;13.03;74.52
65876;HTU21D;52657;51.128;5.938;2023-02-18T07:56:44;13.02;74.38
65876;HTU21D;52657;51.128;5.938;2023-02-18T07:59:12;12.97;74.39
65876;HTU21D;52657;51.128;5.938;2023-02-18T08:01:39;12.99;74.45
65876;HTU21D;52657;51.128;5.938;2023-02-18T08:04:05;12.95;74.17
65876;HTU21D;52657;51.128;5.938;2023-02-18T08:06:37;12.95;73.70
65876;HTU21D;52657;51.128;5.938;2023-02-18T08:09:04;12.97;73.32
65876;HTU21D;52657;51.128;5.938;2023-02-18T08:11:31;12.99;73.02
65876;HTU21D;52657;51.128;5.938;2023-02-18T08:14:05;12.97;72.62
65876;HTU21D;52657;51.128;5.938;2023-02-18T08:16:32;12.97;72.41
65876;HTU21D;52657;51.128;5.938;2023-02-18T08:18:58;12.99;72.06
65876;HTU21D;52657;51.128;5.938;2023-02-18T08:21:25;12.97;71.73
65876;HTU21D;52657;51.128;5.938;2023-02-18T08:23:51;13.01;71.38
65876;HTU21D;52657;51.128;5.938;2023-02-18T08:26:18;13.09;71.22
65876;HTU21D;52657;51.128;5.938;2023-02-18T08:28:46;13.12;70.71
65876;HTU21D;52657;51.128;5.938;2023-02-18T08:31:17;13.11;70.32
65876;HTU21D;52657;51.128;5.938;2023-02-18T08:33:43;13.06;70.07
65876;HTU21D;52657;51.128;5.938;2023-02-18T08:36:09;13.02;69.98
65876;HTU21D;52657;51.128;5.938;2023-02-18T08:38:35;13.01;70.24
65876;HTU21D;52657;51.128;5.938;2023-02-18T08:41:04;13.02;70.06
65876;HTU21D;52657;51.128;5.938;2023-02-18T08:43:30;12.99;69.91
65876;HTU21D;52657;51.128;5.938;2023-02-18T08:45:57;13.00;70.02
65876;HTU21D;52657;51.128;5.938;2023-02-18T08:48:23;13.00;70.12
65876;HTU21D;52657;51.128;5.938;2023-02-18T08:50:49;12.94;69.74
65876;HTU21D;52657;51.128;5.938;2023-02-18T08:53:16;12.97;69.90
65876;HTU21D;52657;51.128;5.938;2023-02-18T08:55:42;13.02;70.08
65876;HTU21D;52657;51.128;5.938;2023-02-18T08:58:19;13.05;69.81
65876;HTU21D;52657;51.128;5.938;2023-02-18T09:00:45;13.10;69.49
65876;HTU21D;52657;51.128;5.938;2023-02-18T09:03:15;13.11;68.96
65876;HTU21D;52657;51.128;5.938;2023-02-18T09:05:41;13.15;68.95
65876;HTU21D;52657;51.128;5.938;2023-02-18T09:08:07;13.17;68.93
65876;HTU21D;52657;51.128;5.938;2023-02-18T09:10:33;13.16;68.97
65876;HTU21D;52657;51.128;5.938;2023-02-18T09:12:59;13.22;68.94
65876;HTU21D;52657;51.128;5.938;2023-02-18T09:15:25;13.31;68.59
65876;HTU21D;52657;51.128;5.938;2023-02-18T09:17:51;13.38;68.54
65876;HTU21D;52657;51.128;5.938;2023-02-18T09:20:16;13.44;67.59
65876;HTU21D;52657;51.128;5.938;2023-02-18T09:22:43;13.46;67.79
65876;HTU21D;52657;51.128;5.938;2023-02-18T09:25:09;13.41;67.66
65876;HTU21D;52657;51.128;5.938;2023-02-18T09:27:34;13.45;67.45
65876;HTU21D;52657;51.128;5.938;2023-02-18T09:30:00;13.47;67.25
65876;HTU21D;52657;51.128;5.938;2023-02-18T09:32:26;13.51;66.81
65876;HTU21D;52657;51.128;5.938;2023-02-18T09:34:52;13.52;67.06
65876;HTU21D;52657;51.128;5.938;2023-02-18T09:37:18;13.52;67.02
65876;HTU21D;52657;51.128;5.938;2023-02-18T09:39:44;13.55;66.88
65876;HTU21D;52657;51.128;5.938;2023-02-18T09:42:17;13.54;67.16
65876;HTU21D;52657;51.128;5.938;2023-02-18T09:44:51;13.53;66.97
65876;HTU21D;52657;51.128;5.938;2023-02-18T09:47:35;13.53;66.91
65876;HTU21D;52657;51.128;5.938;2023-02-18T09:50:13;13.52;67.16
65876;HTU21D;52657;51.128;5.938;2023-02-18T09:52:41;13.55;67.09
65876;HTU21D;52657;51.128;5.938;2023-02-18T09:55:39;13.53;67.27
65876;HTU21D;52657;51.128;5.938;2023-02-18T09:58:13;13.50;67.26
65876;HTU21D;52657;51.128;5.938;2023-02-18T10:00:43;13.44;67.57
65876;HTU21D;52657;51.128;5.938;2023-02-18T10:06:00;13.39;67.63
65876;HTU21D;52657;51.128;5.938;2023-02-18T10:08:37;13.34;67.96
65876;HTU21D;52657;51.128;5.938;2023-02-18T10:11:14;13.34;68.05
65876;HTU21D;52657;51.128;5.938;2023-02-18T10:13:41;13.33;68.27
65876;HTU21D;52657;51.128;5.938;2023-02-18T10:16:09;13.30;68.36
65876;HTU21D;52657;51.128;5.938;2023-02-18T10:18:42;13.24;68.91
65876;HTU21D;52657;51.128;5.938;2023-02-18T10:21:25;13.19;69.41
65876;HTU21D;52657;51.128;5.938;2023-02-18T10:24:02;13.21;69.87
65876;HTU21D;52657;51.128;5.938;2023-02-18T10:26:44;13.20;70.48
65876;HTU21D;52657;51.128;5.938;2023-02-18T10:29:29;13.20;70.71
65876;HTU21D;52657;51.128;5.938;2023-02-18T10:32:26;13.15;71.13
65876;HTU21D;52657;51.128;5.938;2023-02-18T10:35:53;13.16;71.57
65876;HTU21D;52657;51.128;5.938;2023-02-18T10:38:41;13.12;71.64
65876;HTU21D;52657;51.128;5.938;2023-02-18T10:41:59;13.08;71.65
65876;HTU21D;52657;51.128;5.938;2023-02-18T10:46:45;13.07;71.75
65876;HTU21D;52657;51.128;5.938;2023-02-18T10:52:18;13.10;71.25
65876;HTU21D;52657;51.128;5.938;2023-02-18T10:55:05;13.09;71.22
65876;HTU21D;52657;51.128;5.938;2023-02-18T10:57:35;13.15;71.12
65876;HTU21D;52657;51.128;5.938;2023-02-18T11:00:19;13.20;71.16
65876;HTU21D;52657;51.128;5.938;2023-02-18T11:03:16;13.25;71.11
65876;HTU21D;52657;51.128;5.938;2023-02-18T11:05:52;13.22;71.26
65876;HTU21D;52657;51.128;5.938;2023-02-18T11:08:26;13.20;71.36
65876;HTU21D;52657;51.128;5.938;2023-02-18T11:10:54;13.14;71.63
65876;HTU21D;52657;51.128;5.938;2023-02-18T11:13:27;13.11;71.90
65876;HTU21D;52657;51.128;5.938;2023-02-18T11:16:04;13.08;72.23
65876;HTU21D;52657;51.128;5.938;2023-02-18T11:18:37;13.10;72.46
65876;HTU21D;52657;51.128;5.938;2023-02-18T11:21:33;13.12;72.48
65876;HTU21D;52657;51.128;5.938;2023-02-18T11:24:07;13.12;72.45
65876;HTU21D;52657;51.128;5.938;2023-02-18T11:26:35;13.12;72.53
65876;HTU21D;52657;51.128;5.938;2023-02-18T11:29:24;13.16;72.46
65876;HTU21D;52657;51.128;5.938;2023-02-18T11:31:54;13.11;72.61
65876;HTU21D;52657;51.128;5.938;2023-02-18T11:34:28;13.12;72.59
65876;HTU21D;52657;51.128;5.938;2023-02-18T11:37:10;13.16;72.74
65876;HTU21D;52657;51.128;5.938;2023-02-18T11:39:43;13.18;72.96
65876;HTU21D;52657;51.128;5.938;2023-02-18T11:42:14;13.21;72.96
65876;HTU21D;52657;51.128;5.938;2023-02-18T11:44:53;13.14;73.38
65876;HTU21D;52657;51.128;5.938;2023-02-18T11:47:23;13.14;73.86
65876;HTU21D;52657;51.128;5.938;2023-02-18T11:52:41;13.16;74.37
65876;HTU21D;52657;51.128;5.938;2023-02-18T11:58:02;13.16;74.67
65876;HTU21D;52657;51.128;5.938;2023-02-18T12:02:59;13.14;75.13
65876;HTU21D;52657;51.128;5.938;2023-02-18T12:05:33;13.11;75.27
65876;HTU21D;52657;51.128;5.938;2023-02-18T12:08:23;13.14;75.45
65876;HTU21D;52657;51.128;5.938;2023-02-18T12:11:03;13.11;75.60
65876;HTU21D;52657;51.128;5.938;2023-02-18T12:13:51;13.14;75.80
65876;HTU21D;52657;51.128;5.938;2023-02-18T12:19:34;13.23;75.69
65876;HTU21D;52657;51.128;5.938;2023-02-18T12:25:21;13.20;75.81
65876;HTU21D;52657;51.128;5.938;2023-02-18T12:42:28;13.23;76.63
65876;HTU21D;52657;51.128;5.938;2023-02-18T12:47:35;13.23;76.69
65876;HTU21D;52657;51.128;5.938;2023-02-18T12:50:25;13.27;76.76
65876;HTU21D;52657;51.128;5.938;2023-02-18T12:53:04;13.34;76.72
65876;HTU21D;52657;51.128;5.938;2023-02-18T12:56:08;13.38;76.90
65876;HTU21D;52657;51.128;5.938;2023-02-18T13:04:39;13.35;77.02
65876;HTU21D;52657;51.128;5.938;2023-02-18T13:13:04;13.34;77.41
65876;HTU21D;52657;51.128;5.938;2023-02-18T13:18:03;13.34;77.47
65876;HTU21D;52657;51.128;5.938;2023-02-18T13:20:53;13.33;77.60
65876;HTU21D;52657;51.128;5.938;2023-02-18T13:23:27;13.33;77.65
65876;HTU21D;52657;51.128;5.938;2023-02-18T13:25:59;13.39;77.74
65876;HTU21D;52657;51.128;5.938;2023-02-18T13:37:38;13.46;77.54
65876;HTU21D;52657;51.128;5.938;2023-02-18T13:40:24;13.49;77.53
65876;HTU21D;52657;51.128;5.938;2023-02-18T13:42:51;13.47;77.67
65876;HTU21D;52657;51.128;5.938;2023-02-18T13:45:29;13.53;77.54
65876;HTU21D;52657;51.128;5.938;2023-02-18T13:47:57;13.51;77.50
65876;HTU21D;52657;51.128;5.938;2023-02-18T13:58:33;13.50;77.84
65876;HTU21D;52657;51.128;5.938;2023-02-18T14:01:04;13.54;77.96
65876;HTU21D;52657;51.128;5.938;2023-02-18T14:06:05;13.56;77.99
65876;HTU21D;52657;51.128;5.938;2023-02-18T14:08:40;13.59;77.96
65876;HTU21D;52657;51.128;5.938;2023-02-18T14:13:40;13.64;77.87
65876;HTU21D;52657;51.128;5.938;2023-02-18T14:16:07;13.64;77.85
65876;HTU21D;52657;51.128;5.938;2023-02-18T14:18:54;13.62;77.97
65876;HTU21D;52657;51.128;5.938;2023-02-18T14:21:35;13.64;78.02
65876;HTU21D;52657;51.128;5.938;2023-02-18T14:24:04;13.62;78.09
65876;HTU21D;52657;51.128;5.938;2023-02-18T14:26:35;13.61;78.02
65876;HTU21D;52657;51.128;5.938;2023-02-18T14:29:17;13.61;77.99
65876;HTU21D;52657;51.128;5.938;2023-02-18T14:31:55;13.56;78.23
65876;HTU21D;52657;51.128;5.938;2023-02-18T14:34:52;13.56;78.21
65876;HTU21D;52657;51.128;5.938;2023-02-18T14:46:34;13.56;78.28
65876;HTU21D;52657;51.128;5.938;2023-02-18T14:52:03;13.62;78.31
65876;HTU21D;52657;51.128;5.938;2023-02-18T14:54:30;13.64;78.26
65876;HTU21D;52657;51.128;5.938;2023-02-18T14:57:02;13.61;78.32
65876;HTU21D;52657;51.128;5.938;2023-02-18T14:59:34;13.66;78.23
65876;HTU21D;52657;51.128;5.938;2023-02-18T15:02:00;13.70;78.08
65876;HTU21D;52657;51.128;5.938;2023-02-18T15:04:26;13.76;77.80
65876;HTU21D;52657;51.128;5.938;2023-02-18T15:07:04;13.80;77.69
65876;HTU21D;52657;51.128;5.938;2023-02-18T15:09:30;13.84;77.50
65876;HTU21D;52657;51.128;5.938;2023-02-18T15:12:03;13.83;77.49
65876;HTU21D;52657;51.128;5.938;2023-02-18T15:14:39;13.86;77.42
65876;HTU21D;52657;51.128;5.938;2023-02-18T15:17:14;13.85;77.38
65876;HTU21D;52657;51.128;5.938;2023-02-18T15:19:46;13.88;77.31
65876;HTU21D;52657;51.128;5.938;2023-02-18T15:22:17;13.91;77.04
65876;HTU21D;52657;51.128;5.938;2023-02-18T15:24:44;13.92;76.88
65876;HTU21D;52657;51.128;5.938;2023-02-18T15:27:21;13.92;76.79
65876;HTU21D;52657;51.128;5.938;2023-02-18T15:30:26;13.90;76.64
65876;HTU21D;52657;51.128;5.938;2023-02-18T15:32:56;13.88;76.53
65876;HTU21D;52657;51.128;5.938;2023-02-18T15:35:26;13.85;76.60
65876;HTU21D;52657;51.128;5.938;2023-02-18T15:37:56;13.85;76.48
65876;HTU21D;52657;51.128;5.938;2023-02-18T15:40:27;13.88;76.49
65876;HTU21D;52657;51.128;5.938;2023-02-18T15:42:58;13.93;76.26
65876;HTU21D;52657;51.128;5.938;2023-02-18T15:45:35;13.93;76.09
65876;HTU21D;52657;51.128;5.938;2023-02-18T15:48:04;13.93;75.77
65876;HTU21D;52657;51.128;5.938;2023-02-18T15:50:47;13.89;75.82
65876;HTU21D;52657;51.128;5.938;2023-02-18T15:53:17;13.91;75.82
65876;HTU21D;52657;51.128;5.938;2023-02-18T15:55:47;13.93;75.72
65876;HTU21D;52657;51.128;5.938;2023-02-18T15:58:18;13.92;75.62
65876;HTU21D;52657;51.128;5.938;2023-02-18T16:00:53;13.92;75.56
65876;HTU21D;52657;51.128;5.938;2023-02-18T16:03:22;13.89;75.45
65876;HTU21D;52657;51.128;5.938;2023-02-18T16:05:50;13.86;75.39
65876;HTU21D;52657;51.128;5.938;2023-02-18T16:08:24;13.83;75.50
65876;HTU21D;52657;51.128;5.938;2023-02-18T16:10:58;13.84;75.40
65876;HTU21D;52657;51.128;5.938;2023-02-18T16:13:25;13.86;75.41
65876;HTU21D;52657;51.128;5.938;2023-02-18T16:15:54;13.90;75.26
65876;HTU21D;52657;51.128;5.938;2023-02-18T16:18:38;13.89;75.18
65876;HTU21D;52657;51.128;5.938;2023-02-18T16:21:23;13.89;75.26
65876;HTU21D;52657;51.128;5.938;2023-02-18T16:23:58;13.90;75.17
65876;HTU21D;52657;51.128;5.938;2023-02-18T16:26:39;13.92;75.16
65876;HTU21D;52657;51.128;5.938;2023-02-18T16:29:20;13.92;75.08
65876;HTU21D;52657;51.128;5.938;2023-02-18T16:31:46;13.93;74.96
65876;HTU21D;52657;51.128;5.938;2023-02-18T16:34:12;13.94;74.91
65876;HTU21D;52657;51.128;5.938;2023-02-18T16:36:38;13.96;74.99
65876;HTU21D;52657;51.128;5.938;2023-02-18T16:39:24;13.98;74.93
65876;HTU21D;52657;51.128;5.938;2023-02-18T16:41:50;13.93;75.13
65876;HTU21D;52657;51.128;5.938;2023-02-18T16:44:16;13.88;75.29
65876;HTU21D;52657;51.128;5.938;2023-02-18T16:46:42;13.85;75.53
65876;HTU21D;52657;51.128;5.938;2023-02-18T16:49:12;13.88;75.57
65876;HTU21D;52657;51.128;5.938;2023-02-18T16:51:39;13.81;75.62
65876;HTU21D;52657;51.128;5.938;2023-02-18T16:54:11;13.75;75.86
65876;HTU21D;52657;51.128;5.938;2023-02-18T16:56:38;13.71;76.31
65876;HTU21D;52657;51.128;5.938;2023-02-18T16:59:04;13.69;76.29
65876;HTU21D;52657;51.128;5.938;2023-02-18T17:01:33;13.69;76.56
65876;HTU21D;52657;51.128;5.938;2023-02-18T17:04:04;13.70;76.50
65876;HTU21D;52657;51.128;5.938;2023-02-18T17:06:31;13.67;76.60
65876;HTU21D;52657;51.128;5.938;2023-02-18T17:08:58;13.68;76.76
65876;HTU21D;52657;51.128;5.938;2023-02-18T17:11:28;13.64;76.79
65876;HTU21D;52657;51.128;5.938;2023-02-18T17:13:54;13.61;76.79
65876;HTU21D;52657;51.128;5.938;2023-02-18T17:16:23;13.55;77.15
65876;HTU21D;52657;51.128;5.938;2023-02-18T17:18:48;13.56;77.10
65876;HTU21D;52657;51.128;5.938;2023-02-18T17:21:20;13.56;77.06
65876;HTU21D;52657;51.128;5.938;2023-02-18T17:23:48;13.58;76.98
65876;HTU21D;52657;51.128;5.938;2023-02-18T17:26:26;13.53;76.98
65876;HTU21D;52657;51.128;5.938;2023-02-18T17:28:53;13.51;76.93
65876;HTU21D;52657;51.128;5.938;2023-02-18T17:31:26;13.55;76.83
65876;HTU21D;52657;51.128;5.938;2023-02-18T17:33:55;13.59;76.58
65876;HTU21D;52657;51.128;5.938;2023-02-18T17:36:23;13.55;76.63
65876;HTU21D;52657;51.128;5.938;2023-02-18T17:38:49;13.53;76.59
65876;HTU21D;52657;51.128;5.938;2023-02-18T17:41:15;13.58;76.47